sensor_id;sensor_type;location;lat;lon;timestamp;pressure;altitude;pressure_sealevel;temperature;humidity
3796;BME280;1913;50.660;7.834;2023-07-31T00:01:14;152109.34;;;16.47;100.00
3796;BME280;1913;50.660;7.834;2023-07-31T00:03:40;152089.13;;;16.39;100.00
3796;BME280;1913;50.660;7.834;2023-07-31T00:06:05;152094.19;;;16.41;100.00
3796;BME280;1913;50.660;7.834;2023-07-31T00:08:30;152101.78;;;16.44;100.00
3796;BME280;1913;50.660;7.834;2023-07-31T00:10:56;152120.69;;;16.52;100.00
3796;BME280;1913;50.660;7.834;2023-07-31T00:13:21;152135.84;;;16.58;100.00
3796;BME280;1913;50.660;7.834;2023-07-31T00:15:47;152113.09;;;16.49;100.00
3796;BME280;1913;50.660;7.834;2023-07-31T00:18:12;152133.28;;;16.57;100.00
3796;BME280;1913;50.660;7.834;2023-07-31T00:20:38;152140.84;;;16.60;100.00
3796;BME280;1913;50.660;7.834;2023-07-31T00:23:03;152154.75;;;16.66;100.00
3796;BME280;1913;50.660;7.834;2023-07-31T00:25:28;152148.44;;;16.63;100.00
3796;BME280;1913;50.660;7.834;2023-07-31T00:27:54;152138.34;;;16.59;100.00
3796;BME280;1913;50.660;7.834;2023-07-31T00:30:19;152127.00;;;16.55;100.00
3796;BME280;1913;50.660;7.834;2023-07-31T00:32:44;152144.66;;;16.62;100.00
3796;BME280;1913;50.660;7.834;2023-07-31T00:35:10;152134.53;;;16.58;100.00
3796;BME280;1913;50.660;7.834;2023-07-31T00:37:35;152156.00;;;16.66;100.00
3796;BME280;1913;50.660;7.834;2023-07-31T00:40:00;152129.50;;;16.56;100.00
3796;BME280;1913;50.660;7.834;2023-07-31T00:42:26;152148.44;;;16.63;100.00
3796;BME280;1913;50.660;7.834;2023-07-31T00:44:51;152139.59;;;16.60;100.00
3796;BME280;1913;50.660;7.834;2023-07-31T00:47:17;152150.94;;;16.64;100.00
3796;BME280;1913;50.660;7.834;2023-07-31T00:49:42;152148.44;;;16.63;100.00
3796;BME280;1913;50.660;7.834;2023-07-31T00:52:09;152171.16;;;16.72;100.00
3796;BME280;1913;50.660;7.834;2023-07-31T00:54:35;152148.44;;;16.63;100.00
3796;BME280;1913;50.660;7.834;2023-07-31T00:57:01;152148.44;;;16.63;100.00
3796;BME280;1913;50.660;7.834;2023-07-31T00:59:26;152143.38;;;16.61;100.00
3796;BME280;1913;50.660;7.834;2023-07-31T01:01:51;152114.38;;;16.49;100.00
3796;BME280;1913;50.660;7.834;2023-07-31T01:04:17;152135.84;;;16.58;100.00
3796;BME280;1913;50.660;7.834;2023-07-31T01:06:56;152137.09;;;16.59;100.00
3796;BME280;1913;50.660;7.834;2023-07-31T01:09:49;152129.50;;;16.56;100.00
3796;BME280;1913;50.660;7.834;2023-07-31T01:12:20;152144.66;;;16.62;100.00
3796;BME280;1913;50.660;7.834;2023-07-31T01:15:01;152139.59;;;16.60;100.00
3796;BME280;1913;50.660;7.834;2023-07-31T01:17:27;152162.31;;;16.69;100.00
3796;BME280;1913;50.660;7.834;2023-07-31T01:19:54;152115.63;;;16.50;100.00
3796;BME280;1913;50.660;7.834;2023-07-31T01:25:14;152081.56;;;16.36;100.00
3796;BME280;1913;50.660;7.834;2023-07-31T01:28:10;152053.81;;;16.25;100.00
3796;BME280;1913;50.660;7.834;2023-07-31T01:30:41;152057.63;;;16.26;100.00
3796;BME280;1913;50.660;7.834;2023-07-31T01:33:09;152048.78;;;16.23;100.00
3796;BME280;1913;50.660;7.834;2023-07-31T01:35:35;152079.03;;;16.35;100.00
3796;BME280;1913;50.660;7.834;2023-07-31T01:38:01;152051.31;;;16.24;100.00
3796;BME280;1913;50.660;7.834;2023-07-31T01:40:26;152044.97;;;16.21;100.00
3796;BME280;1913;50.660;7.834;2023-07-31T01:42:51;152058.88;;;16.27;100.00
3796;BME280;1913;50.660;7.834;2023-07-31T01:45:17;152066.44;;;16.30;100.00
3796;BME280;1913;50.660;7.834;2023-07-31T01:47:42;152057.63;;;16.26;100.00
3796;BME280;1913;50.660;7.834;2023-07-31T01:50:08;152071.47;;;16.32;100.00
3796;BME280;1913;50.660;7.834;2023-07-31T01:52:34;152068.97;;;16.31;100.00
3796;BME280;1913;50.660;7.834;2023-07-31T01:54:59;152067.72;;;16.31;100.00
3796;BME280;1913;50.660;7.834;2023-07-31T01:57:24;152077.78;;;16.35;100.00
3796;BME280;1913;50.660;7.834;2023-07-31T01:59:50;152100.50;;;16.44;100.00
3796;BME280;1913;50.660;7.834;2023-07-31T02:02:16;152070.22;;;16.32;100.00
3796;BME280;1913;50.660;7.834;2023-07-31T02:04:41;152068.97;;;16.31;100.00
3796;BME280;1913;50.660;7.834;2023-07-31T02:07:06;152076.53;;;16.34;100.00
3796;BME280;1913;50.660;7.834;2023-07-31T02:09:32;152066.44;;;16.30;100.00
3796;BME280;1913;50.660;7.834;2023-07-31T02:11:57;152080.31;;;16.36;100.00
3796;BME280;1913;50.660;7.834;2023-07-31T02:14:23;152063.91;;;16.29;100.00
3796;BME280;1913;50.660;7.834;2023-07-31T02:16:48;152106.78;;;16.46;100.00
3796;BME280;1913;50.660;7.834;2023-07-31T02:19:13;152110.59;;;16.48;100.00
3796;BME280;1913;50.660;7.834;2023-07-31T02:21:38;152099.22;;;16.43;100.00
3796;BME280;1913;50.660;7.834;2023-07-31T02:24:04;152070.22;;;16.32;100.00
3796;BME280;1913;50.660;7.834;2023-07-31T02:26:29;152099.22;;;16.43;100.00
3796;BME280;1913;50.660;7.834;2023-07-31T02:28:55;152080.31;;;16.36;100.00
3796;BME280;1913;50.660;7.834;2023-07-31T02:31:20;152072.72;;;16.33;100.00
3796;BME280;1913;50.660;7.834;2023-07-31T02:33:46;152077.78;;;16.35;100.00
3796;BME280;1913;50.660;7.834;2023-07-31T02:36:11;152062.63;;;16.28;100.00
3796;BME280;1913;50.660;7.834;2023-07-31T02:38:36;152068.97;;;16.31;100.00
3796;BME280;1913;50.660;7.834;2023-07-31T02:41:02;152082.84;;;16.37;100.00
3796;BME280;1913;50.660;7.834;2023-07-31T02:43:27;152108.03;;;16.47;100.00
3796;BME280;1913;50.660;7.834;2023-07-31T02:45:53;152085.38;;;16.38;100.00
3796;BME280;1913;50.660;7.834;2023-07-31T02:48:18;152079.03;;;16.35;100.00
3796;BME280;1913;50.660;7.834;2023-07-31T02:50:45;152091.69;;;16.40;100.00
3796;BME280;1913;50.660;7.834;2023-07-31T02:53:10;152076.53;;;16.34;100.00
3796;BME280;1913;50.660;7.834;2023-07-31T02:55:35;152110.59;;;16.48;100.00
3796;BME280;1913;50.660;7.834;2023-07-31T02:58:01;152082.84;;;16.37;100.00
3796;BME280;1913;50.660;7.834;2023-07-31T03:00:26;152091.69;;;16.40;100.00
3796;BME280;1913;50.660;7.834;2023-07-31T03:02:51;152075.28;;;16.34;100.00
3796;BME280;1913;50.660;7.834;2023-07-31T03:05:17;152080.31;;;16.36;100.00
3796;BME280;1913;50.660;7.834;2023-07-31T03:07:42;152072.72;;;16.33;100.00
3796;BME280;1913;50.660;7.834;2023-07-31T03:10:08;152100.50;;;16.44;100.00
3796;BME280;1913;50.660;7.834;2023-07-31T03:12:33;152070.22;;;16.32;100.00
3796;BME280;1913;50.660;7.834;2023-07-31T03:14:59;152081.56;;;16.36;100.00
3796;BME280;1913;50.660;7.834;2023-07-31T03:17:24;152091.69;;;16.40;100.00
3796;BME280;1913;50.660;7.834;2023-07-31T03:19:49;152071.47;;;16.32;100.00
3796;BME280;1913;50.660;7.834;2023-07-31T03:22:15;152065.19;;;16.30;100.00
3796;BME280;1913;50.660;7.834;2023-07-31T03:24:40;152063.91;;;16.29;100.00
3796;BME280;1913;50.660;7.834;2023-07-31T03:27:06;152067.72;;;16.31;100.00
3796;BME280;1913;50.660;7.834;2023-07-31T03:29:31;152065.19;;;16.30;100.00
3796;BME280;1913;50.660;7.834;2023-07-31T03:31:56;152048.78;;;16.23;100.00
3796;BME280;1913;50.660;7.834;2023-07-31T03:34:22;152042.47;;;16.20;100.00
3796;BME280;1913;50.660;7.834;2023-07-31T03:36:48;152060.13;;;16.27;100.00
3796;BME280;1913;50.660;7.834;2023-07-31T03:39:13;152042.47;;;16.20;100.00
3796;BME280;1913;50.660;7.834;2023-07-31T03:41:38;152058.88;;;16.27;100.00
3796;BME280;1913;50.660;7.834;2023-07-31T03:44:04;152051.31;;;16.24;100.00
3796;BME280;1913;50.660;7.834;2023-07-31T03:46:29;152048.78;;;16.23;100.00
3796;BME280;1913;50.660;7.834;2023-07-31T03:48:54;152046.25;;;16.22;100.00
3796;BME280;1913;50.660;7.834;2023-07-31T03:51:20;152031.13;;;16.16;100.00
3796;BME280;1913;50.660;7.834;2023-07-31T03:53:45;152055.06;;;16.25;100.00
3796;BME280;1913;50.660;7.834;2023-07-31T03:56:11;152051.31;;;16.24;100.00
3796;BME280;1913;50.660;7.834;2023-07-31T03:58:36;152052.56;;;16.24;100.00
3796;BME280;1913;50.660;7.834;2023-07-31T04:01:02;152068.97;;;16.31;100.00
3796;BME280;1913;50.660;7.834;2023-07-31T04:03:28;152061.38;;;16.28;100.00
3796;BME280;1913;50.660;7.834;2023-07-31T04:05:54;152058.88;;;16.27;100.00
3796;BME280;1913;50.660;7.834;2023-07-31T04:08:23;152071.47;;;16.32;100.00
3796;BME280;1913;50.660;7.834;2023-07-31T04:10:49;152056.38;;;16.26;100.00
3796;BME280;1913;50.660;7.834;2023-07-31T04:13:15;152074.03;;;16.33;100.00
3796;BME280;1913;50.660;7.834;2023-07-31T04:15:41;152086.63;;;16.38;100.00
3796;BME280;1913;50.660;7.834;2023-07-31T04:18:06;152068.97;;;16.31;100.00
3796;BME280;1913;50.660;7.834;2023-07-31T04:20:31;152065.19;;;16.30;100.00
3796;BME280;1913;50.660;7.834;2023-07-31T04:22:57;152087.88;;;16.39;100.00
3796;BME280;1913;50.660;7.834;2023-07-31T04:25:22;152085.38;;;16.38;100.00
3796;BME280;1913;50.660;7.834;2023-07-31T04:27:47;152060.13;;;16.27;100.00
3796;BME280;1913;50.660;7.834;2023-07-31T04:30:13;152091.69;;;16.40;100.00
3796;BME280;1913;50.660;7.834;2023-07-31T04:32:38;152070.22;;;16.32;100.00
3796;BME280;1913;50.660;7.834;2023-07-31T04:35:04;152068.97;;;16.31;100.00
3796;BME280;1913;50.660;7.834;2023-07-31T04:37:30;152067.72;;;16.31;100.00
3796;BME280;1913;50.660;7.834;2023-07-31T04:39:56;152039.97;;;16.19;100.00
3796;BME280;1913;50.660;7.834;2023-07-31T04:42:21;152024.81;;;16.13;100.00
3796;BME280;1913;50.660;7.834;2023-07-31T04:44:46;152009.69;;;16.07;100.00
3796;BME280;1913;50.660;7.834;2023-07-31T04:47:12;151979.44;;;15.95;100.00
3796;BME280;1913;50.660;7.834;2023-07-31T04:49:38;151983.19;;;15.96;100.00
3796;BME280;1913;50.660;7.834;2023-07-31T04:52:04;151988.25;;;15.98;100.00
3796;BME280;1913;50.660;7.834;2023-07-31T04:54:29;151997.09;;;16.02;100.00
3796;BME280;1913;50.660;7.834;2023-07-31T04:56:55;151988.25;;;15.98;100.00
3796;BME280;1913;50.660;7.834;2023-07-31T04:59:20;151985.75;;;15.97;100.00
3796;BME280;1913;50.660;7.834;2023-07-31T05:01:46;152007.16;;;16.06;100.00
3796;BME280;1913;50.660;7.834;2023-07-31T05:04:15;152007.16;;;16.06;100.00
3796;BME280;1913;50.660;7.834;2023-07-31T05:06:41;151995.81;;;16.01;100.00
3796;BME280;1913;50.660;7.834;2023-07-31T05:09:07;152014.75;;;16.09;100.00
3796;BME280;1913;50.660;7.834;2023-07-31T05:11:34;152033.66;;;16.17;100.00
3796;BME280;1913;50.660;7.834;2023-07-31T05:14:00;151995.81;;;16.01;100.00
3796;BME280;1913;50.660;7.834;2023-07-31T05:16:25;151983.19;;;15.96;100.00
3796;BME280;1913;50.660;7.834;2023-07-31T05:18:50;151980.69;;;15.95;100.00
3796;BME280;1913;50.660;7.834;2023-07-31T05:21:16;151983.19;;;15.96;100.00
3796;BME280;1913;50.660;7.834;2023-07-31T05:23:41;151997.09;;;16.02;100.00
3796;BME280;1913;50.660;7.834;2023-07-31T05:26:07;151989.50;;;15.99;100.00
3796;BME280;1913;50.660;7.834;2023-07-31T05:28:35;151973.13;;;15.92;100.00
3796;BME280;1913;50.660;7.834;2023-07-31T05:31:04;151980.69;;;15.95;100.00
3796;BME280;1913;50.660;7.834;2023-07-31T05:33:30;151971.84;;;15.92;100.00
3796;BME280;1913;50.660;7.834;2023-07-31T05:35:56;151956.72;;;15.86;100.00
3796;BME280;1913;50.660;7.834;2023-07-31T05:38:22;151946.63;;;15.82;100.00
3796;BME280;1913;50.660;7.834;2023-07-31T05:40:47;151957.97;;;15.86;100.00
3796;BME280;1913;50.660;7.834;2023-07-31T05:43:13;151965.53;;;15.89;100.00
3796;BME280;1913;50.660;7.834;2023-07-31T05:45:38;151961.78;;;15.88;100.00
3796;BME280;1913;50.660;7.834;2023-07-31T05:48:05;151981.94;;;15.96;100.00
3796;BME280;1913;50.660;7.834;2023-07-31T05:50:31;151988.25;;;15.98;100.00
3796;BME280;1913;50.660;7.834;2023-07-31T05:52:56;151976.91;;;15.94;100.00
3796;BME280;1913;50.660;7.834;2023-07-31T05:55:22;151978.19;;;15.94;100.00
3796;BME280;1913;50.660;7.834;2023-07-31T05:57:48;152000.84;;;16.03;100.00
3796;BME280;1913;50.660;7.834;2023-07-31T06:00:14;152013.47;;;16.09;100.00
3796;BME280;1913;50.660;7.834;2023-07-31T06:02:39;152042.47;;;16.20;100.00
3796;BME280;1913;50.660;7.834;2023-07-31T06:05:05;152048.78;;;16.23;100.00
3796;BME280;1913;50.660;7.834;2023-07-31T06:07:34;152058.88;;;16.27;100.00
3796;BME280;1913;50.660;7.834;2023-07-31T06:09:59;152051.31;;;16.24;100.00
3796;BME280;1913;50.660;7.834;2023-07-31T06:12:34;152044.97;;;16.21;100.00
3796;BME280;1913;50.660;7.834;2023-07-31T06:15:00;152053.81;;;16.25;100.00
3796;BME280;1913;50.660;7.834;2023-07-31T06:17:25;152051.31;;;16.24;100.00
3796;BME280;1913;50.660;7.834;2023-07-31T06:19:56;152076.53;;;16.34;100.00
3796;BME280;1913;50.660;7.834;2023-07-31T06:22:21;152077.78;;;16.35;100.00
3796;BME280;1913;50.660;7.834;2023-07-31T06:24:46;152075.28;;;16.34;100.00
3796;BME280;1913;50.660;7.834;2023-07-31T06:27:12;152110.59;;;16.48;100.00
3796;BME280;1913;50.660;7.834;2023-07-31T06:29:37;152099.22;;;16.43;100.00
3796;BME280;1913;50.660;7.834;2023-07-31T06:32:03;152135.84;;;16.58;100.00
3796;BME280;1913;50.660;7.834;2023-07-31T06:34:28;152138.34;;;16.59;100.00
3796;BME280;1913;50.660;7.834;2023-07-31T06:36:55;152150.94;;;16.64;100.00
3796;BME280;1913;50.660;7.834;2023-07-31T06:39:20;152142.09;;;16.61;100.00
3796;BME280;1913;50.660;7.834;2023-07-31T06:41:46;152125.69;;;16.54;100.00
3796;BME280;1913;50.660;7.834;2023-07-31T06:44:11;152105.53;;;16.46;100.00
3796;BME280;1913;50.660;7.834;2023-07-31T06:46:37;152114.38;;;16.49;100.00
3796;BME280;1913;50.660;7.834;2023-07-31T06:49:03;152081.56;;;16.36;100.00
3796;BME280;1913;50.660;7.834;2023-07-31T06:51:28;152038.72;;;16.19;100.00
3796;BME280;1913;50.660;7.834;2023-07-31T06:53:54;152017.25;;;16.10;100.00
3796;BME280;1913;50.660;7.834;2023-07-31T06:56:20;152021.06;;;16.12;100.00
3796;BME280;1913;50.660;7.834;2023-07-31T06:58:46;151998.34;;;16.02;100.00
3796;BME280;1913;50.660;7.834;2023-07-31T07:01:11;151963.03;;;15.88;100.00
3796;BME280;1913;50.660;7.834;2023-07-31T07:03:36;151932.78;;;15.76;100.00
3796;BME280;1913;50.660;7.834;2023-07-31T07:06:02;151923.97;;;15.72;100.00
3796;BME280;1913;50.660;7.834;2023-07-31T07:08:27;151934.03;;;15.76;100.00
3796;BME280;1913;50.660;7.834;2023-07-31T07:10:53;151904.97;;;15.65;100.00
3796;BME280;1913;50.660;7.834;2023-07-31T07:13:19;151906.22;;;15.65;100.00
3796;BME280;1913;50.660;7.834;2023-07-31T07:15:48;151913.84;;;15.68;100.00
3796;BME280;1913;50.660;7.834;2023-07-31T07:18:14;151911.31;;;15.67;100.00
3796;BME280;1913;50.660;7.834;2023-07-31T07:20:46;151937.81;;;15.78;100.00
3796;BME280;1913;50.660;7.834;2023-07-31T07:23:11;151928.97;;;15.74;100.00
3796;BME280;1913;50.660;7.834;2023-07-31T07:25:38;151945.38;;;15.81;100.00
3796;BME280;1913;50.660;7.834;2023-07-31T07:28:03;151956.72;;;15.86;100.00
3796;BME280;1913;50.660;7.834;2023-07-31T07:30:28;151956.72;;;15.86;100.00
3796;BME280;1913;50.660;7.834;2023-07-31T07:32:54;151961.78;;;15.88;100.00
3796;BME280;1913;50.660;7.834;2023-07-31T07:35:19;151999.59;;;16.03;100.00
3796;BME280;1913;50.660;7.834;2023-07-31T07:37:45;152004.66;;;16.05;100.00
3796;BME280;1913;50.660;7.834;2023-07-31T07:40:10;152026.06;;;16.14;100.00
3796;BME280;1913;50.660;7.834;2023-07-31T07:42:36;152044.97;;;16.21;100.00
3796;BME280;1913;50.660;7.834;2023-07-31T07:45:01;152091.69;;;16.40;100.00
3796;BME280;1913;50.660;7.834;2023-07-31T07:47:27;152091.69;;;16.40;100.00
3796;BME280;1913;50.660;7.834;2023-07-31T07:49:53;152145.91;;;16.62;100.00
3796;BME280;1913;50.660;7.834;2023-07-31T07:52:18;152255.72;;;17.07;100.00
3796;BME280;1913;50.660;7.834;2023-07-31T07:54:43;152250.69;;;17.05;100.00
3796;BME280;1913;50.660;7.834;2023-07-31T07:57:09;152301.13;;;17.25;100.00
3796;BME280;1913;50.660;7.834;2023-07-31T07:59:34;152336.47;;;17.39;100.00
3796;BME280;1913;50.660;7.834;2023-07-31T08:02:00;152346.63;;;17.43;100.00
3796;BME280;1913;50.660;7.834;2023-07-31T08:04:25;152390.78;;;17.61;100.00
3796;BME280;1913;50.660;7.834;2023-07-31T08:06:51;152515.81;;;18.12;100.00
3796;BME280;1913;50.660;7.834;2023-07-31T08:09:17;152522.16;;;18.14;100.00
3796;BME280;1913;50.660;7.834;2023-07-31T08:11:44;152496.88;;;18.04;100.00
3796;BME280;1913;50.660;7.834;2023-07-31T08:14:10;152408.47;;;17.68;100.00
3796;BME280;1913;50.660;7.834;2023-07-31T08:16:36;152323.88;;;17.34;100.00
3796;BME280;1913;50.660;7.834;2023-07-31T08:19:01;152254.47;;;17.06;100.00
3796;BME280;1913;50.660;7.834;2023-07-31T08:21:27;152202.72;;;16.85;100.00
3796;BME280;1913;50.660;7.834;2023-07-31T08:23:52;152144.66;;;16.62;100.00
3796;BME280;1913;50.660;7.834;2023-07-31T08:26:18;152127.00;;;16.55;100.00
3796;BME280;1913;50.660;7.834;2023-07-31T08:28:44;152123.19;;;16.53;100.00
3796;BME280;1913;50.660;7.834;2023-07-31T08:31:10;152135.84;;;16.58;100.00
3796;BME280;1913;50.660;7.834;2023-07-31T08:33:36;152129.50;;;16.56;100.00
3796;BME280;1913;50.660;7.834;2023-07-31T08:36:02;152133.28;;;16.57;100.00
3796;BME280;1913;50.660;7.834;2023-07-31T08:38:27;152089.13;;;16.39;100.00
3796;BME280;1913;50.660;7.834;2023-07-31T08:40:54;152090.38;;;16.40;100.00
3796;BME280;1913;50.660;7.834;2023-07-31T08:43:25;152034.91;;;16.17;100.00
3796;BME280;1913;50.660;7.834;2023-07-31T08:45:51;152019.75;;;16.11;100.00
3796;BME280;1913;50.660;7.834;2023-07-31T08:48:17;151985.75;;;15.97;100.00
3796;BME280;1913;50.660;7.834;2023-07-31T08:50:43;151971.84;;;15.92;100.00
3796;BME280;1913;50.660;7.834;2023-07-31T08:53:08;151959.28;;;15.87;100.00
3796;BME280;1913;50.660;7.834;2023-07-31T08:55:35;151941.63;;;15.79;100.00
3796;BME280;1913;50.660;7.834;2023-07-31T08:58:02;151946.63;;;15.82;100.00
3796;BME280;1913;50.660;7.834;2023-07-31T09:00:29;151957.97;;;15.86;100.00
3796;BME280;1913;50.660;7.834;2023-07-31T09:03:01;151940.31;;;15.79;100.00
3796;BME280;1913;50.660;7.834;2023-07-31T09:05:29;151936.56;;;15.77;100.00
3796;BME280;1913;50.660;7.834;2023-07-31T09:07:56;151911.31;;;15.67;100.00
3796;BME280;1913;50.660;7.834;2023-07-31T09:10:22;151934.03;;;15.76;100.00
3796;BME280;1913;50.660;7.834;2023-07-31T09:12:50;151975.63;;;15.93;100.00
3796;BME280;1913;50.660;7.834;2023-07-31T09:15:16;151961.78;;;15.88;100.00
3796;BME280;1913;50.660;7.834;2023-07-31T09:17:41;152002.09;;;16.04;100.00
3796;BME280;1913;50.660;7.834;2023-07-31T09:22:39;151970.59;;;15.91;100.00
3796;BME280;1913;50.660;7.834;2023-07-31T09:28:07;151917.66;;;15.70;100.00
3796;BME280;1913;50.660;7.834;2023-07-31T09:30:48;151888.56;;;15.58;100.00
3796;BME280;1913;50.660;7.834;2023-07-31T09:33:14;151902.47;;;15.64;100.00
3796;BME280;1913;50.660;7.834;2023-07-31T09:35:40;151931.50;;;15.75;100.00
3796;BME280;1913;50.660;7.834;2023-07-31T09:38:08;151926.47;;;15.73;100.00
3796;BME280;1913;50.660;7.834;2023-07-31T09:40:36;151892.38;;;15.60;100.00
3796;BME280;1913;50.660;7.834;2023-07-31T09:43:06;151921.41;;;15.71;100.00
3796;BME280;1913;50.660;7.834;2023-07-31T09:45:35;151956.72;;;15.86;100.00
3796;BME280;1913;50.660;7.834;2023-07-31T09:48:02;151949.13;;;15.83;100.00
3796;BME280;1913;50.660;7.834;2023-07-31T09:50:28;151979.44;;;15.95;100.00
3796;BME280;1913;50.660;7.834;2023-07-31T09:52:54;152027.34;;;16.14;100.00
3796;BME280;1913;50.660;7.834;2023-07-31T09:55:20;152087.88;;;16.39;100.00
3796;BME280;1913;50.660;7.834;2023-07-31T09:57:47;152106.78;;;16.46;100.00
3796;BME280;1913;50.660;7.834;2023-07-31T10:00:15;152115.63;;;16.50;100.00
3796;BME280;1913;50.660;7.834;2023-07-31T10:02:41;152203.97;;;16.86;100.00
3796;BME280;1913;50.660;7.834;2023-07-31T10:05:15;152283.47;;;17.18;100.00
3796;BME280;1913;50.660;7.834;2023-07-31T10:07:54;152321.38;;;17.33;100.00
3796;BME280;1913;50.660;7.834;2023-07-31T10:10:21;152340.28;;;17.41;100.00
3796;BME280;1913;50.660;7.834;2023-07-31T10:12:52;152347.88;;;17.44;100.00
3796;BME280;1913;50.660;7.834;2023-07-31T10:15:18;152351.63;;;17.45;100.00
3796;BME280;1913;50.660;7.834;2023-07-31T10:17:47;152360.47;;;17.49;100.00
3796;BME280;1913;50.660;7.834;2023-07-31T10:20:14;152394.56;;;17.63;100.00
3796;BME280;1913;50.660;7.834;2023-07-31T10:22:42;152405.91;;;17.67;100.00
3796;BME280;1913;50.660;7.834;2023-07-31T10:25:08;152423.56;;;17.75;100.00
3796;BME280;1913;50.660;7.834;2023-07-31T10:27:35;152386.97;;;17.60;100.00
3796;BME280;1913;50.660;7.834;2023-07-31T10:30:05;152432.47;;;17.78;100.00
3796;BME280;1913;50.660;7.834;2023-07-31T10:32:33;152392.03;;;17.62;100.00
3796;BME280;1913;50.660;7.834;2023-07-31T10:35:01;152400.88;;;17.65;100.00
3796;BME280;1913;50.660;7.834;2023-07-31T10:37:39;152410.97;;;17.69;100.00
3796;BME280;1913;50.660;7.834;2023-07-31T10:40:07;152394.56;;;17.63;100.00
3796;BME280;1913;50.660;7.834;2023-07-31T10:42:48;152408.47;;;17.68;100.00
3796;BME280;1913;50.660;7.834;2023-07-31T10:45:31;152405.91;;;17.67;100.00
3796;BME280;1913;50.660;7.834;2023-07-31T10:50:31;152423.56;;;17.75;100.00
3796;BME280;1913;50.660;7.834;2023-07-31T10:53:00;152471.63;;;17.94;100.00
3796;BME280;1913;50.660;7.834;2023-07-31T10:55:42;152479.22;;;17.97;100.00
3796;BME280;1913;50.660;7.834;2023-07-31T10:58:12;152436.28;;;17.80;100.00
3796;BME280;1913;50.660;7.834;2023-07-31T11:00:42;152466.56;;;17.92;100.00
3796;BME280;1913;50.660;7.834;2023-07-31T11:03:18;152402.13;;;17.66;100.00
3796;BME280;1913;50.660;7.834;2023-07-31T11:05:50;152364.28;;;17.51;100.00
3796;BME280;1913;50.660;7.834;2023-07-31T11:08:26;152364.28;;;17.51;100.00
3796;BME280;1913;50.660;7.834;2023-07-31T11:13:27;152365.53;;;17.51;100.00
3796;BME280;1913;50.660;7.834;2023-07-31T11:15:52;152366.78;;;17.52;100.00
3796;BME280;1913;50.660;7.834;2023-07-31T11:18:17;152394.56;;;17.63;100.00
3796;BME280;1913;50.660;7.834;2023-07-31T11:20:43;152429.94;;;17.77;100.00
3796;BME280;1913;50.660;7.834;2023-07-31T11:23:10;152436.28;;;17.80;100.00
3796;BME280;1913;50.660;7.834;2023-07-31T11:25:36;152428.69;;;17.77;100.00
3796;BME280;1913;50.660;7.834;2023-07-31T11:28:08;152451.44;;;17.86;100.00
3796;BME280;1913;50.660;7.834;2023-07-31T11:30:34;152418.56;;;17.73;100.00
3796;BME280;1913;50.660;7.834;2023-07-31T11:33:05;152423.56;;;17.75;100.00
3796;BME280;1913;50.660;7.834;2023-07-31T11:35:44;152438.78;;;17.81;100.00
3796;BME280;1913;50.660;7.834;2023-07-31T11:38:31;152436.28;;;17.80;100.00
3796;BME280;1913;50.660;7.834;2023-07-31T11:40:59;152456.47;;;17.88;100.00
3796;BME280;1913;50.660;7.834;2023-07-31T11:43:25;152462.78;;;17.90;100.00
3796;BME280;1913;50.660;7.834;2023-07-31T11:45:54;152501.91;;;18.06;100.00
3796;BME280;1913;50.660;7.834;2023-07-31T11:48:30;152518.31;;;18.13;100.00
3796;BME280;1913;50.660;7.834;2023-07-31T11:51:03;152524.66;;;18.15;100.00
3796;BME280;1913;50.660;7.834;2023-07-31T11:53:33;152527.16;;;18.16;100.00
3796;BME280;1913;50.660;7.834;2023-07-31T11:56:00;152572.63;;;18.35;100.00
3796;BME280;1913;50.660;7.834;2023-07-31T11:58:27;152573.88;;;18.35;100.00
3796;BME280;1913;50.660;7.834;2023-07-31T12:00:54;152591.56;;;18.42;100.00
3796;BME280;1913;50.660;7.834;2023-07-31T12:03:20;152594.13;;;18.43;100.00
3796;BME280;1913;50.660;7.834;2023-07-31T12:05:47;152650.94;;;18.66;100.00
3796;BME280;1913;50.660;7.834;2023-07-31T12:08:13;152691.41;;;18.83;100.00
3796;BME280;1913;50.660;7.834;2023-07-31T12:10:39;152685.09;;;18.80;100.00
3796;BME280;1913;50.660;7.834;2023-07-31T12:13:08;152663.63;;;18.72;100.00
3796;BME280;1913;50.660;7.834;2023-07-31T12:15:43;152690.16;;;18.82;100.00
3796;BME280;1913;50.660;7.834;2023-07-31T12:18:13;152696.44;;;18.85;100.00
3796;BME280;1913;50.660;7.834;2023-07-31T12:20:56;152683.84;;;18.80;100.00
3796;BME280;1913;50.660;7.834;2023-07-31T12:23:25;152754.56;;;19.08;100.00
3796;BME280;1913;50.660;7.834;2023-07-31T12:28:29;152731.81;;;18.99;100.00
3796;BME280;1913;50.660;7.834;2023-07-31T12:30:59;152767.19;;;19.13;100.00
3796;BME280;1913;50.660;7.834;2023-07-31T12:33:33;152807.66;;;19.30;100.00
3796;BME280;1913;50.660;7.834;2023-07-31T12:36:01;152812.72;;;19.32;100.00
3796;BME280;1913;50.660;7.834;2023-07-31T12:38:27;152729.31;;;18.98;100.00
3796;BME280;1913;50.660;7.834;2023-07-31T12:40:52;152717.94;;;18.94;100.00
3796;BME280;1913;50.660;7.834;2023-07-31T12:43:17;152749.50;;;19.06;100.00
3796;BME280;1913;50.660;7.834;2023-07-31T12:45:43;152836.69;;;19.42;100.00
3796;BME280;1913;50.660;7.834;2023-07-31T12:48:09;152878.41;;;19.58;100.00
3796;BME280;1913;50.660;7.834;2023-07-31T12:50:35;153032.69;;;20.21;100.00
3796;BME280;1913;50.660;7.834;2023-07-31T12:53:02;153230.00;;;21.00;100.00
3796;BME280;1913;50.660;7.834;2023-07-31T12:55:28;153298.31;;;21.28;100.00
3796;BME280;1913;50.660;7.834;2023-07-31T12:57:55;153329.97;;;21.41;100.00
3796;BME280;1913;50.660;7.834;2023-07-31T13:00:21;153417.28;;;21.76;100.00
3796;BME280;1913;50.660;7.834;2023-07-31T13:02:46;153342.63;;;21.46;100.00
3796;BME280;1913;50.660;7.834;2023-07-31T13:05:12;153168.03;;;20.75;100.00
3796;BME280;1913;50.660;7.834;2023-07-31T13:07:38;153097.16;;;20.47;100.00
3796;BME280;1913;50.660;7.834;2023-07-31T13:10:04;152974.53;;;19.97;100.00
3796;BME280;1913;50.660;7.834;2023-07-31T13:12:30;152975.78;;;19.98;100.00
3796;BME280;1913;50.660;7.834;2023-07-31T13:14:55;152972.00;;;19.96;100.00